createdAt,value
2023-07-03T00:00:20.565Z,2.67
2023-07-03T00:03:23.653Z,3.28
2023-07-03T00:06:25.767Z,3.25
2023-07-03T00:09:27.690Z,2.50
2023-07-03T00:12:29.676Z,2.73
2023-07-03T00:15:32.067Z,2.67
2023-07-03T00:18:34.015Z,2.58
2023-07-03T00:21:44.963Z,2.35
2023-07-03T00:24:47.099Z,2.50
2023-07-03T00:27:49.244Z,2.77
2023-07-03T00:30:51.235Z,2.60
2023-07-03T00:33:53.101Z,2.95
2023-07-03T00:36:55.921Z,2.33
2023-07-03T00:39:57.892Z,2.92
2023-07-03T00:43:00.231Z,3.53
2023-07-03T00:46:02.308Z,3.47
2023-07-03T00:49:06.075Z,2.92
2023-07-03T00:52:10.853Z,3.50
2023-07-03T00:55:14.932Z,2.97
2023-07-03T00:58:17.025Z,3.00
2023-07-03T01:01:35.643Z,3.28
2023-07-03T01:04:56.901Z,3.70
2023-07-03T01:08:00.467Z,3.90
2023-07-03T01:11:02.878Z,4.03
2023-07-03T01:14:08.543Z,3.90
2023-07-03T01:17:11.870Z,3.62
2023-07-03T01:20:18.204Z,3.92
2023-07-03T01:23:43.628Z,3.92
2023-07-03T01:26:47.554Z,3.80
2023-07-03T01:29:53.990Z,4.10
2023-07-03T01:32:57.916Z,3.83
2023-07-03T01:36:01.300Z,4.22
2023-07-03T01:39:04.220Z,4.60
2023-07-03T01:42:08.103Z,3.75
2023-07-03T01:45:10.961Z,4.17
2023-07-03T01:48:13.036Z,3.85
2023-07-03T01:51:21.557Z,4.22
2023-07-03T01:54:32.441Z,3.53
2023-07-03T01:57:48.085Z,4.20
2023-07-03T02:00:56.349Z,4.33
2023-07-03T02:04:08.042Z,4.07
2023-07-03T02:07:13.058Z,4.28
2023-07-03T02:10:15.096Z,4.03
2023-07-03T02:13:17.318Z,4.10
2023-07-03T02:16:19.285Z,3.97
2023-07-03T02:19:28.649Z,4.47
2023-07-03T02:22:30.647Z,4.50
2023-07-03T02:25:32.642Z,3.87
2023-07-03T02:28:35.832Z,4.30
2023-07-03T02:31:38.161Z,4.07
2023-07-03T02:34:40.450Z,3.47
2023-07-03T02:37:42.350Z,3.97
2023-07-03T02:40:44.599Z,3.65
2023-07-03T02:43:46.562Z,3.80
2023-07-03T02:46:48.685Z,3.40
2023-07-03T02:49:50.748Z,3.62
2023-07-03T02:52:52.726Z,3.85
2023-07-03T02:55:57.739Z,3.92
2023-07-03T02:58:59.715Z,3.90
2023-07-03T03:02:01.822Z,4.00
2023-07-03T03:05:03.981Z,4.25
2023-07-03T03:08:06.046Z,4.10
2023-07-03T03:11:08.179Z,3.80
2023-07-03T03:14:10.233Z,3.92
2023-07-03T03:17:12.157Z,3.97
2023-07-03T03:20:17.272Z,3.50
2023-07-03T03:23:19.252Z,3.83
2023-07-03T03:26:21.750Z,4.10
2023-07-03T03:29:23.827Z,3.87
2023-07-03T03:32:26.645Z,3.77
2023-07-03T03:35:28.600Z,3.95
2023-07-03T03:38:30.571Z,3.62
2023-07-03T03:41:32.687Z,3.65
2023-07-03T03:44:34.930Z,4.37
2023-07-03T03:47:36.982Z,3.13
2023-07-03T03:50:39.420Z,3.30
2023-07-03T03:53:41.564Z,3.55
2023-07-03T03:56:43.564Z,3.37
2023-07-03T03:59:45.673Z,3.90
2023-07-03T04:02:48.314Z,3.70
2023-07-03T04:05:50.693Z,3.60
2023-07-03T04:08:53.205Z,3.92
2023-07-03T04:11:55.561Z,3.70
2023-07-03T04:14:57.525Z,3.70
2023-07-03T04:17:59.614Z,3.80
2023-07-03T04:21:01.592Z,3.45
2023-07-03T04:24:03.724Z,3.78
2023-07-03T04:27:06.430Z,3.65
2023-07-03T04:30:09.311Z,3.17
2023-07-03T04:33:11.301Z,3.37
2023-07-03T04:36:14.368Z,3.83
2023-07-03T04:39:17.106Z,3.65
2023-07-03T04:42:19.010Z,3.50
2023-07-03T04:45:22.718Z,3.50
2023-07-03T04:48:24.684Z,3.30
2023-07-03T04:51:31.999Z,3.58
2023-07-03T04:54:34.413Z,3.67
2023-07-03T04:57:43.528Z,4.00
2023-07-03T05:00:45.416Z,3.53
2023-07-03T05:03:47.562Z,3.50
2023-07-03T05:06:50.070Z,3.50
2023-07-03T05:09:52.058Z,4.07
2023-07-03T05:12:54.254Z,3.62
2023-07-03T05:15:56.357Z,3.67
2023-07-03T05:18:58.357Z,3.30
2023-07-03T05:22:00.325Z,3.60
2023-07-03T05:25:02.376Z,3.42
2023-07-03T05:28:04.491Z,3.65
2023-07-03T05:31:06.603Z,3.80
2023-07-03T05:34:08.660Z,4.20
2023-07-03T05:37:10.651Z,3.75
2023-07-03T05:40:16.327Z,4.00
2023-07-03T05:43:19.780Z,3.70
2023-07-03T05:46:21.830Z,4.12
2023-07-03T05:49:23.840Z,4.60
2023-07-03T05:52:26.388Z,4.28
2023-07-03T05:55:28.407Z,4.35
2023-07-03T05:58:30.599Z,4.05
2023-07-03T06:01:32.741Z,4.43
2023-07-03T06:04:34.979Z,4.20
2023-07-03T06:07:36.887Z,4.28
2023-07-03T06:10:39.591Z,4.47
2023-07-03T06:13:41.659Z,3.95
2023-07-03T06:16:44.889Z,4.95
2023-07-03T06:19:46.880Z,4.20
2023-07-03T06:22:49.168Z,4.30
2023-07-03T06:25:52.012Z,4.32
2023-07-03T06:28:54.269Z,4.20
2023-07-03T06:31:56.247Z,4.70
2023-07-03T06:34:58.531Z,4.30
2023-07-03T06:38:02.268Z,4.62
2023-07-03T06:41:04.347Z,4.82
2023-07-03T06:44:07.906Z,4.60
2023-07-03T06:47:09.950Z,4.82
2023-07-03T06:50:12.213Z,4.77
2023-07-03T06:53:14.195Z,4.75
2023-07-03T06:56:16.216Z,5.10
2023-07-03T06:59:18.296Z,4.75
2023-07-03T07:02:20.520Z,4.95
2023-07-03T07:05:22.730Z,4.93
2023-07-03T07:08:24.804Z,5.30
2023-07-03T07:11:34.671Z,5.37
2023-07-03T07:14:36.942Z,5.10
2023-07-03T07:17:51.051Z,5.15
2023-07-03T07:20:55.699Z,5.40
2023-07-03T07:23:59.526Z,5.32
2023-07-03T07:27:01.801Z,5.07
2023-07-03T07:30:04.245Z,4.62
2023-07-03T07:33:06.299Z,5.43
2023-07-03T07:36:13.631Z,4.40
2023-07-03T07:39:15.883Z,5.00
2023-07-03T07:42:17.942Z,5.22
2023-07-03T07:45:20.064Z,5.57
2023-07-03T07:48:23.135Z,4.87
2023-07-03T07:51:27.189Z,5.27
2023-07-03T07:54:29.194Z,5.30
2023-07-03T07:57:31.547Z,5.20
2023-07-03T08:00:33.621Z,5.37
2023-07-03T08:03:35.827Z,5.12
2023-07-03T08:06:37.848Z,5.77
2023-07-03T08:09:39.933Z,4.97
2023-07-03T08:12:43.280Z,5.05
2023-07-03T08:15:46.853Z,5.43
2023-07-03T08:18:50.010Z,5.00
2023-07-03T08:21:52.471Z,4.97
2023-07-03T08:24:54.756Z,5.50
2023-07-03T08:27:56.937Z,5.30
2023-07-03T08:30:59.482Z,5.32
2023-07-03T08:34:01.801Z,5.53
2023-07-03T08:40:09.991Z,5.00
2023-07-03T08:43:19.735Z,5.87
2023-07-03T08:46:25.472Z,5.47
2023-07-03T08:49:28.803Z,5.53
2023-07-03T08:52:51.283Z,5.90
2023-07-03T08:55:58.512Z,5.75
2023-07-03T08:59:04.022Z,5.90
2023-07-03T09:02:20.705Z,5.60
2023-07-03T09:05:49.784Z,6.55
2023-07-03T09:09:08.349Z,5.93
2023-07-03T09:12:34.830Z,5.97
2023-07-03T09:15:45.764Z,6.12
2023-07-03T09:18:52.726Z,5.28
2023-07-03T09:21:59.136Z,5.45
2023-07-03T09:25:05.120Z,5.13
2023-07-03T09:28:10.564Z,5.57
2023-07-03T09:31:12.539Z,5.95
2023-07-03T09:34:17.381Z,6.47
2023-07-03T09:37:19.318Z,6.10
2023-07-03T09:40:30.313Z,5.90
2023-07-03T09:43:32.989Z,6.28
2023-07-03T09:46:35.096Z,5.65
2023-07-03T09:49:37.538Z,6.43
2023-07-03T09:52:59.362Z,6.12
2023-07-03T09:56:17.915Z,6.30
2023-07-03T09:59:21.095Z,5.85
2023-07-03T10:08:43.179Z,5.75
2023-07-03T10:12:13.299Z,5.90
2023-07-03T10:15:21.705Z,6.20
2023-07-03T10:18:35.495Z,6.10
2023-07-03T10:21:40.067Z,6.90
2023-07-03T10:24:43.990Z,6.55
2023-07-03T10:27:47.652Z,6.47
2023-07-03T10:30:55.087Z,5.68
2023-07-03T10:34:03.532Z,6.15
2023-07-03T10:37:07.518Z,6.25
2023-07-03T10:40:18.729Z,5.90
2023-07-03T10:43:23.257Z,6.10
2023-07-03T10:46:51.522Z,6.18
2023-07-03T10:49:53.560Z,5.32
2023-07-03T10:53:24.605Z,5.25
2023-07-03T10:56:43.496Z,5.35
2023-07-03T10:59:50.929Z,6.80
2023-07-03T11:03:29.080Z,6.25
2023-07-03T11:06:58.539Z,5.53
2023-07-03T11:10:27.254Z,5.60
2023-07-03T11:13:45.513Z,5.32
2023-07-03T11:16:59.415Z,5.60
2023-07-03T11:20:27.086Z,5.80
2023-07-03T11:23:38.568Z,5.65
2023-07-03T11:29:49.185Z,6.25
2023-07-03T11:32:51.668Z,4.83
2023-07-03T11:35:59.072Z,3.95
2023-07-03T11:46:06.798Z,5.82
2023-07-03T11:49:13.285Z,4.57
2023-07-03T11:52:26.668Z,5.40
2023-07-03T11:55:38.654Z,6.18
2023-07-03T11:58:41.057Z,6.03
2023-07-03T12:01:43.250Z,5.95
2023-07-03T12:04:49.827Z,5.70
2023-07-03T12:07:52.434Z,5.28
2023-07-03T12:11:00.339Z,5.32
2023-07-03T12:14:02.450Z,5.78
2023-07-03T12:17:04.726Z,5.78
2023-07-03T12:20:11.828Z,4.70
2023-07-03T12:23:30.639Z,5.60
2023-07-03T12:26:33.179Z,4.75
2023-07-03T12:29:49.372Z,4.90
2023-07-03T12:32:53.016Z,6.22
2023-07-03T12:35:55.102Z,5.97
2023-07-03T12:38:58.083Z,6.03
2023-07-03T12:42:09.234Z,6.85
2023-07-03T12:45:20.461Z,6.45
2023-07-03T12:48:24.318Z,6.62
2023-07-03T12:51:26.356Z,7.33
2023-07-03T12:54:28.517Z,7.37
2023-07-03T12:57:35.542Z,6.95
2023-07-03T13:00:37.864Z,6.78
2023-07-03T13:03:42.167Z,6.75
2023-07-03T13:06:45.245Z,7.27
2023-07-03T13:09:47.497Z,6.72
2023-07-03T13:13:11.745Z,6.75
2023-07-03T13:16:19.135Z,6.00
2023-07-03T13:19:35.991Z,6.72
2023-07-03T13:22:38.339Z,6.53
2023-07-03T13:25:52.544Z,6.87
2023-07-03T13:29:02.862Z,6.75
2023-07-03T13:32:23.569Z,5.70
2023-07-03T13:35:32.481Z,6.10
2023-07-03T13:38:35.350Z,5.17
2023-07-03T13:41:39.003Z,4.85
2023-07-03T13:44:40.964Z,5.37
2023-07-03T13:47:42.969Z,4.68
2023-07-03T13:50:45.378Z,5.72
2023-07-03T13:53:51.150Z,4.80
2023-07-03T13:56:55.960Z,5.25
2023-07-03T13:59:57.945Z,5.30
2023-07-03T14:03:00.142Z,5.57
2023-07-03T14:06:02.519Z,5.12
2023-07-03T14:09:05.525Z,3.57
2023-07-03T14:12:08.097Z,5.57
2023-07-03T14:15:30.179Z,5.65
2023-07-03T14:18:32.328Z,4.32
2023-07-03T14:21:35.186Z,6.30
2023-07-03T14:24:37.184Z,5.90
2023-07-03T14:27:40.488Z,5.47
2023-07-03T14:30:43.080Z,6.55
2023-07-03T14:33:45.254Z,6.75
2023-07-03T14:36:47.813Z,6.68
2023-07-03T14:39:49.840Z,6.53
2023-07-03T14:42:51.815Z,5.95
2023-07-03T14:45:54.155Z,5.55
2023-07-03T14:48:56.419Z,6.07
2023-07-03T14:51:58.345Z,5.22
2023-07-03T14:55:00.375Z,6.50
2023-07-03T14:58:02.434Z,6.05
2023-07-03T15:01:05.194Z,6.07
2023-07-03T15:04:09.964Z,6.10
2023-07-03T15:07:12.554Z,5.78
2023-07-03T15:10:16.533Z,5.70
2023-07-03T15:13:18.601Z,6.25
2023-07-03T15:16:20.675Z,5.55
2023-07-03T15:19:22.741Z,6.10
2023-07-03T15:22:24.865Z,6.18
2023-07-03T15:25:27.174Z,5.63
2023-07-03T15:28:29.129Z,6.12
2023-07-03T15:31:31.632Z,5.70
2023-07-03T15:34:33.683Z,5.78
2023-07-03T15:37:35.703Z,5.97
2023-07-03T15:40:38.799Z,6.03
2023-07-03T15:43:41.083Z,6.47
2023-07-03T15:46:43.926Z,6.30
2023-07-03T15:49:47.426Z,5.87
2023-07-03T15:52:49.387Z,6.05
2023-07-03T15:56:04.178Z,5.20
2023-07-03T15:59:06.898Z,5.87
2023-07-03T16:02:08.857Z,6.30
2023-07-03T16:05:11.948Z,5.25
2023-07-03T16:08:13.833Z,6.20
2023-07-03T16:11:21.442Z,6.03
2023-07-03T16:14:23.492Z,6.00
2023-07-03T16:17:25.712Z,5.50
2023-07-03T16:20:27.972Z,5.60
2023-07-03T16:23:32.521Z,5.50
2023-07-03T16:26:34.973Z,5.97
2023-07-03T16:29:36.936Z,5.68
2023-07-03T16:32:39.010Z,6.78
2023-07-03T16:35:40.990Z,6.18
2023-07-03T16:38:51.376Z,6.28
2023-07-03T16:41:53.387Z,5.60
2023-07-03T16:44:55.436Z,5.55
2023-07-03T16:47:58.589Z,5.80
2023-07-03T16:51:02.033Z,6.37
2023-07-03T16:54:04.249Z,5.45
2023-07-03T16:57:06.405Z,5.93
2023-07-03T17:00:09.743Z,5.90
2023-07-03T17:03:13.116Z,6.20
2023-07-03T17:06:22.069Z,6.28
2023-07-03T17:09:24.372Z,6.18
2023-07-03T17:12:26.496Z,6.00
2023-07-03T17:15:28.913Z,5.82
2023-07-03T17:18:31.148Z,5.95
2023-07-03T17:21:33.617Z,6.25
2023-07-03T17:24:36.122Z,6.07
2023-07-03T17:27:38.701Z,5.93
2023-07-03T17:30:41.095Z,6.28
2023-07-03T17:33:43.726Z,6.15
2023-07-03T17:36:45.946Z,6.32
2023-07-03T17:39:48.296Z,6.50
2023-07-03T17:42:50.749Z,6.47
2023-07-03T17:45:54.848Z,6.55
2023-07-03T17:48:57.740Z,6.80
2023-07-03T17:51:59.909Z,7.18
2023-07-03T17:55:02.264Z,6.82
2023-07-03T17:58:05.238Z,7.10
2023-07-03T18:01:07.982Z,6.75
2023-07-03T18:04:11.031Z,6.75
2023-07-03T18:07:15.593Z,6.28
2023-07-03T18:10:17.848Z,6.18
2023-07-03T18:13:20.403Z,5.83
2023-07-03T18:16:23.188Z,6.50
2023-07-03T18:19:25.500Z,5.82
2023-07-03T18:22:28.215Z,6.57
2023-07-03T18:25:30.843Z,6.87
2023-07-03T18:28:33.192Z,5.77
2023-07-03T18:31:35.805Z,6.18
2023-07-03T18:34:38.154Z,6.35
2023-07-03T18:37:40.916Z,6.37
2023-07-03T18:40:45.038Z,6.35
2023-07-03T18:43:47.735Z,6.73
2023-07-03T18:46:50.311Z,6.18
2023-07-03T18:49:52.568Z,6.85
2023-07-03T18:52:54.764Z,6.50
2023-07-03T18:55:57.382Z,6.57
2023-07-03T18:59:00.340Z,6.50
2023-07-03T19:02:02.699Z,6.62
2023-07-03T19:05:06.695Z,7.53
2023-07-03T19:08:09.316Z,6.97
2023-07-03T19:11:12.111Z,6.90
2023-07-03T19:14:16.266Z,6.53
2023-07-03T19:17:19.383Z,6.30
2023-07-03T19:20:22.550Z,6.75
2023-07-03T19:23:25.621Z,6.37
2023-07-03T19:26:30.656Z,7.03
2023-07-03T19:29:33.404Z,7.30
2023-07-03T19:32:36.102Z,7.35
2023-07-03T19:35:38.526Z,7.10
2023-07-03T19:38:43.466Z,7.57
2023-07-03T19:41:45.943Z,6.95
2023-07-03T19:44:48.469Z,5.93
2023-07-03T19:47:51.455Z,6.45
2023-07-03T19:50:54.571Z,6.37
2023-07-03T19:53:57.079Z,5.85
2023-07-03T19:56:59.679Z,5.70
2023-07-03T20:00:02.169Z,5.80
2023-07-03T20:03:04.674Z,5.62
2023-07-03T20:06:19.643Z,5.68
2023-07-03T20:09:22.211Z,5.82
2023-07-03T20:12:25.031Z,5.53
2023-07-03T20:15:27.029Z,5.53
2023-07-03T20:18:29.369Z,5.68
2023-07-03T20:21:32.084Z,5.75
2023-07-03T20:24:36.254Z,5.20
2023-07-03T20:27:39.283Z,5.57
2023-07-03T20:30:47.653Z,6.00
2023-07-03T20:33:50.515Z,5.70
2023-07-03T20:36:53.161Z,5.25
2023-07-03T20:39:59.058Z,5.55
2023-07-03T20:43:01.266Z,5.80
2023-07-03T20:46:06.048Z,5.73
2023-07-03T20:49:10.804Z,5.37
2023-07-03T20:52:15.691Z,5.50
2023-07-03T20:55:24.689Z,6.15
2023-07-03T20:58:26.976Z,5.85
2023-07-03T21:01:37.840Z,5.33
2023-07-03T21:04:40.903Z,5.95
2023-07-03T21:07:42.925Z,5.50
2023-07-03T21:10:45.075Z,6.05
2023-07-03T21:13:49.593Z,5.57
2023-07-03T21:16:51.663Z,5.80
2023-07-03T21:19:54.071Z,5.90
2023-07-03T21:22:56.106Z,6.37
2023-07-03T21:25:58.279Z,6.30
2023-07-03T21:29:00.800Z,5.72
2023-07-03T21:32:03.051Z,5.90
2023-07-03T21:35:05.512Z,5.30
2023-07-03T21:38:07.575Z,5.37
2023-07-03T21:41:11.766Z,5.18
2023-07-03T21:44:17.012Z,5.43
2023-07-03T21:47:19.354Z,4.73
2023-07-03T21:50:22.314Z,5.40
2023-07-03T21:53:24.507Z,5.43
2023-07-03T21:56:29.472Z,5.32
2023-07-03T21:59:31.484Z,4.93
2023-07-03T22:02:36.308Z,4.63
2023-07-03T22:05:38.311Z,5.37
2023-07-03T22:08:40.313Z,4.80
2023-07-03T22:11:42.361Z,4.37
2023-07-03T22:14:44.576Z,4.40
2023-07-03T22:17:46.524Z,4.77
2023-07-03T22:20:52.998Z,4.65
2023-07-03T22:23:55.185Z,4.50
2023-07-03T22:26:57.238Z,4.47
2023-07-03T22:29:59.585Z,4.55
2023-07-03T22:33:01.683Z,4.70
2023-07-03T22:36:03.919Z,4.50
2023-07-03T22:39:05.931Z,4.12
2023-07-03T22:42:08.187Z,4.25
2023-07-03T22:45:11.003Z,4.20
2023-07-03T22:48:13.175Z,4.10
2023-07-03T22:51:15.324Z,4.55
2023-07-03T22:54:18.341Z,4.62
2023-07-03T22:57:22.306Z,4.57
2023-07-03T23:00:24.789Z,5.45
2023-07-03T23:03:27.776Z,4.50
2023-07-03T23:06:30.287Z,4.50
2023-07-03T23:09:33.640Z,4.28
2023-07-03T23:12:35.920Z,4.62
2023-07-03T23:15:38.008Z,5.55
2023-07-03T23:18:41.715Z,4.73
2023-07-03T23:21:49.683Z,4.40
2023-07-03T23:24:55.745Z,4.28
2023-07-03T23:27:58.123Z,4.62
2023-07-03T23:31:02.269Z,5.22
2023-07-03T23:34:06.831Z,5.50
2023-07-03T23:37:09.431Z,4.60
2023-07-03T23:40:12.207Z,4.82
2023-07-03T23:43:14.939Z,5.32
2023-07-03T23:46:18.377Z,4.75
2023-07-03T23:49:20.489Z,4.77
2023-07-03T23:52:23.722Z,4.62
2023-07-03T23:55:26.264Z,5.05
2023-07-03T23:58:28.355Z,4.50
